Main page
METAR-TAF:

METAR-TAF

Airports :

Ahmedabad, India

Sardar Vallabhbhai Patel International Airport

latitude: 23-04N, longitude: 072-38E, elevation: 55 m

Current weather observation

The report was made 1 hour and 13 minutes ago, at 05:30 UTC
Wind 3 kt from the North
Temperature 34°C
Humidity 34%
Pressure 1009 hPa
Visibility: 4000 m
smoke

METAR: VAAH 210530Z 36003KT 4000 FU NSC 34/16 Q1009 BECMG5000

Time: 12:13 (06:43 UTC)

Forecast

The report was made 1 hour and 43 minutes ago, at 05:00 UTC
Forecast valid from 21 at 06 UTC to 22 at 12 UTC
Wind 6 kt from the North/Northeast
Visibility: 6000 m
Becoming
from 21 at 12 UTC to 21 at 14 UTC
Wind 5 kt from the North/Northwest
Visibility: 4000 m
Becoming
from 22 at 01 UTC to 22 at 03 UTC
Wind 3 kt from the North
Visibility: 2000 m
Becoming
from 22 at 04 UTC to 22 at 06 UTC
Wind 6 kt from the North/Northeast
Visibility: 6000 m

TAF: VAAH 210500Z 2106/2212 02006KT 6000 NSC BECMG 2112/2114 33005KT 4000 FUHZ BECMG 2201/2203 35003KT 2000 BRHZ BECMG 2204/2206 03006KT 6000 NSC

Weather observations and forecasts of more than 4000 airports (METAR and TAF reports).

The available stations are represented by yellow and red dots on the map.

Hover mouse over dot to see the name of the station.

Then click to see weather observations and forecasts.

To change the map : click on the green buttons with a black cross to zoom in, on the green button with a dash to zoom out, or on the green arrows for adjacent maps.


METAR-TAF: